createdAt,value
2018-03-14T00:00:36.360Z,76.43
2018-03-14T00:03:02.475Z,68.90
2018-03-14T00:05:28.643Z,71.90
2018-03-14T00:07:54.881Z,79.20
2018-03-14T00:10:21.280Z,83.20
2018-03-14T00:12:47.465Z,70.57
2018-03-14T00:15:13.633Z,74.03
2018-03-14T00:17:39.768Z,75.33
2018-03-14T00:20:05.914Z,75.47
2018-03-14T00:22:32.155Z,74.40
2018-03-14T00:24:58.300Z,70.30
2018-03-14T00:27:24.448Z,73.10
2018-03-14T00:29:51.368Z,71.50
2018-03-14T00:32:17.568Z,75.80
2018-03-14T00:34:43.745Z,79.97
2018-03-14T00:37:09.912Z,79.70
2018-03-14T00:39:36.076Z,70.87
2018-03-14T00:42:02.340Z,64.63
2018-03-14T00:44:28.460Z,72.87
2018-03-14T00:46:54.627Z,70.67
2018-03-14T00:49:20.777Z,66.77
2018-03-14T00:51:46.994Z,68.87
2018-03-14T00:54:13.117Z,69.67
2018-03-14T00:56:40.013Z,77.73
2018-03-14T00:59:06.182Z,74.23
2018-03-14T01:01:32.305Z,67.00
2018-03-14T01:03:58.519Z,75.97
2018-03-14T01:06:24.641Z,64.63
2018-03-14T01:08:50.780Z,73.97
2018-03-14T01:11:17.001Z,68.53
2018-03-14T01:13:43.881Z,76.50
2018-03-14T01:16:10.005Z,63.33
2018-03-14T01:18:36.882Z,67.90
2018-03-14T01:21:03.034Z,67.93
2018-03-14T01:23:29.179Z,84.43
2018-03-14T01:25:55.449Z,66.07
2018-03-14T01:28:21.691Z,71.20
2018-03-14T01:30:47.840Z,84.33
2018-03-14T01:33:13.968Z,67.40
2018-03-14T01:35:40.095Z,77.37
2018-03-14T01:38:06.226Z,64.33
2018-03-14T01:40:32.399Z,84.73
2018-03-14T01:42:58.506Z,76.73
2018-03-14T01:45:24.702Z,76.47
2018-03-14T01:47:50.859Z,70.73
2018-03-14T01:50:17.148Z,82.83
2018-03-14T01:52:43.280Z,65.63
2018-03-14T01:55:09.418Z,84.43
2018-03-14T01:57:35.563Z,80.03
2018-03-14T02:00:01.743Z,65.80
2018-03-14T02:02:27.868Z,73.83
2018-03-14T02:04:54.764Z,72.13
2018-03-14T02:07:20.920Z,70.87
2018-03-14T02:09:47.113Z,77.10
2018-03-14T02:12:13.257Z,82.33
2018-03-14T02:14:39.399Z,80.00
2018-03-14T02:17:05.552Z,63.40
2018-03-14T02:19:31.719Z,73.40
2018-03-14T02:21:57.879Z,65.93
2018-03-14T02:24:24.008Z,76.50
2018-03-14T02:26:50.166Z,72.50
2018-03-14T02:29:16.304Z,76.17
2018-03-14T02:31:43.165Z,75.23
2018-03-14T02:34:09.302Z,87.40
2018-03-14T02:36:47.574Z,72.47
2018-03-14T02:39:13.712Z,77.00
2018-03-14T02:41:39.830Z,62.20
2018-03-14T02:44:05.990Z,81.97
2018-03-14T02:46:32.126Z,81.10
2018-03-14T02:48:58.237Z,79.20
2018-03-14T02:51:25.115Z,78.33
2018-03-14T02:53:51.272Z,75.27
2018-03-14T02:56:17.434Z,77.03
2018-03-14T02:58:43.557Z,68.40
2018-03-14T03:01:09.692Z,74.00
2018-03-14T03:03:35.877Z,66.83
2018-03-14T03:06:02.185Z,70.83
2018-03-14T03:08:28.561Z,74.73
2018-03-14T03:10:54.753Z,82.80
2018-03-14T03:13:20.896Z,70.77
2018-03-14T03:15:47.018Z,78.47
2018-03-14T03:18:13.124Z,72.53
2018-03-14T03:20:39.264Z,73.07
2018-03-14T03:23:05.377Z,79.50
2018-03-14T03:25:31.526Z,74.20
2018-03-14T03:27:57.622Z,71.93
2018-03-14T03:30:23.761Z,66.70
2018-03-14T03:32:49.892Z,71.37
2018-03-14T03:35:16.066Z,69.03
2018-03-14T03:37:42.245Z,80.90
2018-03-14T03:40:09.086Z,77.10
2018-03-14T03:42:35.213Z,76.90
2018-03-14T03:45:01.743Z,79.67
2018-03-14T03:47:27.886Z,70.47
2018-03-14T03:49:53.986Z,75.43
2018-03-14T03:52:20.247Z,78.17
2018-03-14T03:54:46.410Z,74.67
2018-03-14T03:57:12.548Z,80.63
2018-03-14T03:59:38.647Z,86.00
2018-03-14T04:02:04.808Z,98.40
2018-03-14T04:04:30.971Z,85.50
2018-03-14T04:06:57.142Z,92.70
2018-03-14T04:09:24.040Z,82.43
2018-03-14T04:11:50.157Z,87.83
2018-03-14T04:14:16.487Z,76.73
2018-03-14T04:16:42.624Z,84.37
2018-03-14T04:19:08.861Z,82.53
2018-03-14T04:21:35.178Z,77.87
2018-03-14T04:24:02.458Z,90.17
2018-03-14T04:26:29.045Z,84.60
2018-03-14T04:28:55.489Z,87.77
2018-03-14T04:31:21.632Z,84.63
2018-03-14T04:33:47.812Z,96.90
2018-03-14T04:36:13.996Z,84.43
2018-03-14T04:38:40.160Z,78.80
2018-03-14T04:41:06.405Z,80.40
2018-03-14T04:43:32.535Z,104.73
2018-03-14T04:45:58.682Z,91.23
2018-03-14T04:48:24.802Z,103.33
2018-03-14T04:50:50.954Z,102.83
2018-03-14T04:53:17.105Z,95.43
2018-03-14T04:55:43.253Z,93.23
2018-03-14T04:58:09.419Z,108.53
2018-03-14T05:00:35.580Z,113.70
2018-03-14T05:03:02.845Z,111.30
2018-03-14T05:05:29.231Z,109.17
2018-03-14T05:07:55.529Z,108.37
2018-03-14T05:10:21.773Z,113.37
2018-03-14T05:12:51.893Z,112.27
2018-03-14T05:15:18.332Z,102.10
2018-03-14T05:17:44.492Z,112.80
2018-03-14T05:20:10.668Z,141.33
2018-03-14T05:22:36.844Z,132.00
2018-03-14T05:25:03.016Z,111.33
2018-03-14T05:27:29.176Z,136.93
2018-03-14T05:29:55.537Z,135.37
2018-03-14T05:32:21.754Z,112.63
2018-03-14T05:34:48.166Z,123.57
2018-03-14T05:37:14.460Z,137.87
2018-03-14T05:39:40.683Z,124.77
2018-03-14T05:42:06.994Z,150.93
2018-03-14T05:44:33.148Z,130.63
2018-03-14T05:46:59.448Z,158.47
2018-03-14T05:49:25.616Z,157.13
2018-03-14T05:51:52.560Z,152.40
2018-03-14T05:54:18.793Z,145.10
2018-03-14T05:56:45.026Z,151.13
2018-03-14T05:59:11.318Z,157.83
2018-03-14T06:01:38.330Z,153.30
2018-03-14T06:04:05.324Z,149.33
2018-03-14T06:06:31.615Z,153.37
2018-03-14T06:08:57.798Z,157.63
2018-03-14T06:11:24.714Z,150.53
2018-03-14T06:13:51.655Z,158.63
2018-03-14T06:16:18.233Z,155.10
2018-03-14T06:18:44.481Z,148.50
2018-03-14T06:21:10.605Z,173.67
2018-03-14T06:23:36.834Z,169.60
2018-03-14T06:26:03.104Z,154.40
2018-03-14T06:28:31.192Z,167.93
2018-03-14T06:30:58.477Z,154.87
2018-03-14T06:33:25.358Z,158.60
2018-03-14T06:39:00.647Z,178.73
2018-03-14T06:41:26.999Z,189.10
2018-03-14T06:43:53.327Z,219.90
2018-03-14T06:46:20.059Z,177.30
2018-03-14T06:49:07.515Z,168.43
2018-03-14T06:51:51.978Z,175.23
2018-03-14T06:54:18.303Z,183.53
2018-03-14T06:56:45.379Z,181.40
2018-03-14T06:59:23.806Z,179.93
2018-03-14T07:07:34.642Z,165.83
2018-03-14T07:10:00.951Z,143.40
2018-03-14T07:12:27.320Z,166.20
2018-03-14T07:14:53.707Z,183.97
2018-03-14T07:17:19.889Z,168.40
2018-03-14T07:19:46.100Z,156.67
2018-03-14T07:22:12.321Z,161.43
2018-03-14T07:24:39.599Z,167.80
2018-03-14T07:27:05.769Z,149.73
2018-03-14T07:29:32.026Z,152.30
2018-03-14T07:31:58.232Z,140.90
2018-03-14T07:34:24.401Z,155.00
2018-03-14T07:36:50.601Z,161.37
2018-03-14T07:39:16.820Z,154.10
2018-03-14T07:41:43.744Z,152.27
2018-03-14T07:44:10.005Z,143.33
2018-03-14T07:46:36.265Z,132.27
2018-03-14T07:49:02.674Z,142.97
2018-03-14T07:51:29.206Z,142.10
2018-03-14T07:53:55.513Z,133.47
2018-03-14T07:56:21.661Z,123.40
2018-03-14T07:58:47.820Z,127.90
2018-03-14T08:01:14.020Z,126.87
2018-03-14T08:03:40.921Z,120.70
2018-03-14T08:06:07.103Z,126.23
2018-03-14T08:08:33.249Z,127.30
2018-03-14T08:10:59.437Z,112.60
2018-03-14T08:13:48.030Z,130.00
2018-03-14T08:16:14.104Z,119.80
2018-03-14T08:18:40.359Z,115.20
2018-03-14T08:21:07.608Z,117.10
2018-03-14T08:23:34.517Z,123.27
2018-03-14T08:26:00.776Z,130.63
2018-03-14T08:28:26.909Z,125.43
2018-03-14T08:30:53.095Z,119.60
2018-03-14T08:33:20.022Z,148.07
2018-03-14T08:35:46.212Z,132.83
2018-03-14T08:38:12.666Z,110.80
2018-03-14T08:40:38.912Z,112.40
2018-03-14T08:43:05.139Z,114.03
2018-03-14T08:45:31.368Z,99.50
2018-03-14T08:47:57.516Z,108.30
2018-03-14T08:50:23.711Z,104.50
2018-03-14T08:52:49.857Z,100.50
2018-03-14T08:55:16.026Z,98.67
2018-03-14T08:57:42.254Z,108.60
2018-03-14T09:00:09.265Z,81.07
2018-03-14T09:02:35.483Z,87.17
2018-03-14T09:05:01.746Z,78.33
2018-03-14T09:07:27.995Z,72.33
2018-03-14T09:09:54.168Z,91.03
2018-03-14T09:12:21.637Z,86.37
2018-03-14T09:14:48.566Z,80.63
2018-03-14T09:17:14.710Z,75.87
2018-03-14T09:19:40.923Z,74.47
2018-03-14T09:22:09.174Z,72.80
2018-03-14T09:24:35.330Z,63.57
2018-03-14T09:27:01.501Z,66.93
2018-03-14T09:29:27.766Z,64.00
2018-03-14T09:31:54.061Z,70.07
2018-03-14T09:34:20.217Z,70.27
2018-03-14T09:36:46.436Z,66.43
2018-03-14T09:39:12.577Z,61.10
2018-03-14T09:41:38.764Z,63.20
2018-03-14T09:44:04.992Z,66.33
2018-03-14T09:46:31.253Z,65.00
2018-03-14T09:48:57.405Z,61.93
2018-03-14T09:51:24.402Z,48.07
2018-03-14T09:53:50.592Z,60.40
2018-03-14T09:56:16.823Z,56.40
2018-03-14T09:58:42.996Z,54.03
2018-03-14T10:01:09.251Z,50.00
2018-03-14T10:03:35.550Z,62.37
2018-03-14T10:06:01.810Z,45.70
2018-03-14T10:08:28.051Z,56.93
2018-03-14T10:10:54.159Z,54.10
2018-03-14T10:13:20.269Z,52.23
2018-03-14T10:15:46.416Z,55.23
2018-03-14T10:18:12.554Z,49.27
2018-03-14T10:20:38.714Z,50.80
2018-03-14T10:23:04.847Z,55.40
2018-03-14T10:25:31.067Z,58.43
2018-03-14T10:27:57.220Z,53.90
2018-03-14T10:30:23.408Z,41.67
2018-03-14T10:32:50.303Z,52.10
2018-03-14T10:35:16.531Z,54.10
2018-03-14T10:37:43.432Z,48.47
2018-03-14T10:40:09.574Z,47.43
2018-03-14T10:42:35.699Z,46.30
2018-03-14T10:45:02.080Z,46.90
2018-03-14T10:47:28.185Z,40.87
2018-03-14T10:49:54.908Z,47.50
2018-03-14T10:52:21.068Z,46.40
2018-03-14T10:54:47.165Z,41.80
2018-03-14T10:57:14.062Z,42.20
2018-03-14T10:59:40.303Z,38.10
2018-03-14T11:02:12.519Z,47.17
2018-03-14T11:04:38.660Z,40.40
2018-03-14T11:07:04.862Z,49.30
2018-03-14T11:09:30.971Z,30.90
2018-03-14T11:11:57.842Z,31.00
2018-03-14T11:14:23.971Z,34.13
2018-03-14T11:16:51.187Z,36.87
2018-03-14T11:19:17.442Z,36.03
2018-03-14T11:21:44.247Z,41.60
2018-03-14T11:24:11.028Z,38.53
2018-03-14T11:26:37.380Z,41.57
2018-03-14T11:29:03.488Z,39.37
2018-03-14T11:31:29.685Z,40.40
2018-03-14T11:33:55.985Z,38.53
2018-03-14T11:36:23.063Z,43.23
2018-03-14T11:38:50.160Z,42.60
2018-03-14T11:41:16.832Z,41.33
2018-03-14T11:43:43.500Z,64.23
2018-03-14T11:46:09.636Z,41.43
2018-03-14T11:48:35.838Z,32.30
2018-03-14T11:51:03.518Z,38.80
2018-03-14T11:53:31.018Z,35.10
2018-03-14T11:55:57.340Z,29.90
2018-03-14T11:58:23.500Z,27.90
2018-03-14T12:00:50.119Z,37.60
2018-03-14T12:03:16.434Z,38.37
2018-03-14T12:05:43.671Z,30.93
2018-03-14T12:08:09.909Z,28.20
2018-03-14T12:10:37.032Z,42.60
2018-03-14T12:13:03.621Z,27.77
2018-03-14T12:15:30.616Z,23.20
2018-03-14T12:17:58.143Z,26.60
2018-03-14T13:21:58.511Z,24.10
2018-03-14T13:24:24.743Z,17.87
2018-03-14T13:26:51.618Z,22.20
2018-03-14T13:29:17.764Z,28.73
2018-03-14T13:31:43.962Z,26.33
2018-03-14T13:36:41.491Z,18.97
2018-03-14T13:39:08.439Z,20.00
2018-03-14T13:41:35.365Z,19.10
2018-03-14T13:44:01.772Z,23.33
2018-03-14T13:46:28.004Z,16.90
2018-03-14T13:48:54.435Z,24.60
2018-03-14T13:51:20.906Z,17.07
2018-03-14T13:53:47.062Z,21.70
2018-03-14T13:56:13.188Z,18.13
2018-03-14T13:58:39.615Z,20.60
2018-03-14T14:01:05.770Z,15.80
2018-03-14T14:03:31.897Z,15.20
2018-03-14T14:05:58.048Z,20.33
2018-03-14T14:08:24.159Z,18.73
2018-03-14T14:10:51.015Z,14.00
2018-03-14T14:13:17.951Z,17.30
2018-03-14T14:15:44.049Z,16.10
2018-03-14T14:18:10.237Z,19.37
2018-03-14T14:20:37.393Z,16.53
2018-03-14T14:23:03.593Z,16.30
2018-03-14T14:25:29.740Z,19.80
2018-03-14T14:27:56.198Z,17.70
2018-03-14T14:30:22.360Z,17.63
2018-03-14T14:32:48.619Z,17.10
2018-03-14T14:35:14.750Z,12.90
2018-03-14T14:37:41.622Z,17.60
2018-03-14T14:40:08.491Z,13.33
2018-03-14T14:42:34.592Z,17.67
2018-03-14T14:45:01.004Z,14.57
2018-03-14T14:47:27.160Z,19.60
2018-03-14T14:49:53.372Z,16.67
2018-03-14T14:52:19.581Z,14.50
2018-03-14T14:54:45.733Z,18.67
2018-03-14T14:57:12.228Z,18.70
2018-03-14T14:59:38.369Z,18.50
2018-03-14T15:02:04.512Z,17.83
2018-03-14T15:04:30.974Z,17.80
2018-03-14T15:06:57.916Z,21.90
2018-03-14T15:09:24.083Z,11.20
2018-03-14T15:11:50.236Z,16.07
2018-03-14T15:14:16.461Z,17.10
2018-03-14T15:16:43.366Z,15.30
2018-03-14T15:19:09.725Z,19.30
2018-03-14T15:21:35.972Z,14.77
2018-03-14T15:24:02.058Z,14.60
2018-03-14T15:26:28.230Z,14.60
2018-03-14T15:28:54.391Z,17.23
2018-03-14T15:31:20.517Z,17.70
2018-03-14T15:33:47.059Z,12.50
2018-03-14T15:36:13.237Z,19.40
2018-03-14T15:38:39.407Z,15.67
2018-03-14T15:41:05.547Z,10.80
2018-03-14T15:43:31.838Z,13.13
2018-03-14T15:45:58.021Z,18.67
2018-03-14T15:48:24.200Z,15.47
2018-03-14T15:50:50.380Z,18.43
2018-03-14T15:53:16.717Z,9.50
2018-03-14T15:55:42.886Z,10.20
2018-03-14T15:58:09.115Z,11.87
2018-03-14T16:00:35.949Z,11.13
2018-03-14T16:03:02.148Z,13.60
2018-03-14T16:05:28.288Z,15.43
2018-03-14T16:07:54.476Z,9.13
2018-03-14T16:10:21.424Z,9.80
2018-03-14T16:12:47.593Z,12.03
2018-03-14T16:15:13.804Z,16.57
2018-03-14T16:17:39.957Z,12.13
2018-03-14T16:20:06.889Z,13.60
2018-03-14T16:22:33.086Z,9.40
2018-03-14T16:24:59.234Z,9.97
2018-03-14T16:27:25.359Z,10.20
2018-03-14T16:29:51.506Z,13.57
2018-03-14T16:32:17.658Z,12.07
2018-03-14T16:34:43.868Z,12.57
2018-03-14T16:37:18.712Z,10.13
2018-03-14T16:39:46.596Z,15.70
2018-03-14T16:42:13.318Z,12.43
2018-03-14T16:44:40.305Z,13.87
2018-03-14T16:47:07.187Z,7.63
2018-03-14T16:49:34.135Z,10.63
2018-03-14T16:52:00.319Z,12.30
2018-03-14T16:54:26.496Z,14.07
2018-03-14T16:56:53.369Z,11.50
2018-03-14T16:59:19.501Z,12.00
2018-03-14T17:01:45.673Z,9.93
2018-03-14T17:04:12.138Z,9.70
2018-03-14T17:06:38.977Z,14.17
2018-03-14T17:09:05.184Z,11.80
2018-03-14T17:11:31.346Z,13.13
2018-03-14T17:13:57.941Z,9.60
2018-03-14T17:16:24.888Z,12.47
2018-03-14T17:18:51.013Z,11.00
2018-03-14T17:21:17.148Z,10.30
2018-03-14T17:23:43.305Z,12.73
2018-03-14T17:26:09.682Z,10.67
2018-03-14T17:28:37.133Z,11.03
2018-03-14T17:31:03.289Z,17.90
2018-03-14T17:33:30.178Z,13.93
2018-03-14T17:51:08.589Z,17.37
2018-03-14T17:53:34.742Z,13.27
2018-03-14T17:56:00.865Z,20.73
2018-03-14T17:58:27.776Z,10.17
2018-03-14T18:00:54.769Z,16.73
2018-03-14T18:03:20.868Z,18.93
2018-03-14T18:05:47.006Z,11.67
2018-03-14T18:08:13.916Z,14.83
2018-03-14T18:10:40.342Z,9.40
2018-03-14T18:13:06.532Z,13.70
2018-03-14T18:15:32.729Z,13.60
2018-03-14T18:17:59.258Z,10.70
2018-03-14T18:20:25.488Z,15.40
2018-03-14T18:22:52.450Z,9.50
2018-03-14T18:25:19.400Z,14.87
2018-03-14T18:27:46.264Z,29.43
2018-03-14T18:30:13.160Z,17.20
2018-03-14T18:32:40.038Z,15.83
2018-03-14T18:35:06.144Z,16.20
2018-03-14T18:37:32.313Z,14.73
2018-03-14T18:39:58.428Z,14.33
2018-03-14T18:42:24.589Z,14.80
2018-03-14T18:44:50.704Z,15.07
2018-03-14T18:47:16.954Z,9.90
2018-03-14T18:49:43.159Z,24.70
2018-03-14T18:52:11.055Z,15.47
2018-03-14T18:54:37.249Z,10.67
2018-03-14T18:57:03.401Z,12.20
2018-03-14T18:59:30.319Z,13.27
2018-03-14T19:01:56.425Z,20.43
2018-03-14T19:04:22.560Z,13.27
2018-03-14T19:06:48.719Z,10.00
2018-03-14T19:09:14.935Z,14.07
2018-03-14T19:11:41.037Z,20.70
2018-03-14T19:14:07.180Z,17.77
2018-03-14T19:16:33.329Z,14.37
2018-03-14T19:18:59.463Z,12.37
2018-03-14T19:21:25.613Z,17.47
2018-03-14T19:23:52.556Z,16.53
2018-03-14T19:26:18.770Z,11.80
2018-03-14T19:28:44.908Z,12.80
2018-03-14T19:31:11.039Z,12.47
2018-03-14T19:33:37.231Z,12.13
2018-03-14T19:36:03.487Z,10.67
2018-03-14T19:38:29.892Z,16.43
2018-03-14T19:40:56.070Z,18.60
2018-03-14T19:43:22.224Z,13.40
2018-03-14T19:45:48.620Z,20.17
2018-03-14T19:48:14.909Z,16.93
2018-03-14T19:50:41.132Z,14.67
2018-03-14T19:53:08.061Z,19.23
2018-03-14T19:55:34.324Z,15.67
2018-03-14T19:58:00.716Z,20.17
2018-03-14T20:00:26.872Z,14.43
2018-03-14T20:02:53.095Z,14.80
2018-03-14T20:05:19.253Z,23.67
2018-03-14T20:07:45.404Z,13.97
2018-03-14T20:10:11.561Z,15.27
2018-03-14T20:12:38.457Z,15.83
2018-03-14T20:15:04.610Z,16.40
2018-03-14T20:17:30.767Z,20.37
2018-03-14T20:19:56.892Z,23.80
2018-03-14T20:22:23.061Z,27.93
2018-03-14T20:24:49.319Z,15.80
2018-03-14T20:27:16.260Z,25.40
2018-03-14T20:29:42.417Z,18.23
2018-03-14T20:32:08.586Z,23.37
2018-03-14T20:34:35.464Z,23.40
2018-03-14T20:37:01.616Z,27.80
2018-03-14T20:39:27.793Z,20.30
2018-03-14T20:41:53.937Z,21.10
2018-03-14T20:44:20.146Z,18.87
2018-03-14T20:46:46.272Z,25.30
2018-03-14T20:49:14.900Z,22.57
2018-03-14T20:51:42.427Z,23.47
2018-03-14T20:54:10.005Z,20.30
2018-03-14T20:56:36.281Z,24.57
2018-03-14T20:59:02.514Z,17.60
2018-03-14T21:01:29.149Z,25.00
2018-03-14T21:03:55.269Z,25.53
2018-03-14T21:06:21.466Z,26.40
2018-03-14T21:08:47.774Z,23.73
2018-03-14T21:11:13.897Z,19.67
2018-03-14T21:13:41.585Z,23.23
2018-03-14T21:16:07.733Z,23.77
2018-03-14T21:18:33.992Z,29.27
2018-03-14T21:21:00.168Z,27.93
2018-03-14T21:23:31.018Z,26.90
2018-03-14T21:25:57.505Z,34.90
2018-03-14T21:28:24.148Z,26.50
2018-03-14T21:30:50.265Z,37.87
2018-03-14T21:33:16.517Z,25.43
2018-03-14T21:35:43.404Z,30.10
2018-03-14T21:38:09.541Z,26.63
2018-03-14T21:40:35.805Z,28.43
2018-03-14T21:43:06.391Z,34.37
2018-03-14T21:45:33.452Z,29.70
2018-03-14T21:47:59.624Z,39.43
2018-03-14T21:50:26.248Z,28.83
2018-03-14T21:52:52.594Z,34.40
2018-03-14T21:55:31.189Z,39.20
2018-03-14T21:57:57.330Z,31.17
2018-03-14T22:00:24.204Z,36.23
2018-03-14T22:02:50.798Z,36.53
2018-03-14T22:05:17.024Z,35.70
2018-03-14T22:07:43.173Z,42.70
2018-03-14T22:10:09.275Z,35.53
2018-03-14T22:12:35.508Z,35.53
2018-03-14T22:15:02.548Z,32.70
2018-03-14T22:17:28.659Z,40.37
2018-03-14T22:19:54.828Z,36.03
2018-03-14T22:22:20.926Z,38.20
2018-03-14T22:24:47.092Z,45.23
2018-03-14T22:27:14.018Z,39.70
2018-03-14T22:29:40.173Z,44.17
2018-03-14T22:32:07.879Z,35.93
2018-03-14T22:34:34.414Z,38.37
2018-03-14T22:37:01.341Z,34.10
2018-03-14T22:39:28.177Z,31.17
2018-03-14T22:41:56.993Z,38.17
2018-03-14T22:44:23.124Z,38.53
2018-03-14T22:46:51.232Z,30.70
2018-03-14T22:49:17.855Z,41.60
2018-03-14T22:51:44.117Z,35.50
2018-03-14T22:54:10.378Z,42.03
2018-03-14T22:56:36.521Z,42.00
2018-03-14T22:59:02.652Z,37.87
2018-03-14T23:01:28.894Z,32.20
2018-03-14T23:03:59.832Z,41.13
2018-03-14T23:06:25.988Z,38.70
2018-03-14T23:08:52.879Z,38.33
2018-03-14T23:11:28.649Z,37.77
2018-03-14T23:13:55.124Z,43.37
2018-03-14T23:16:21.255Z,39.80
2018-03-14T23:18:48.221Z,42.87
2018-03-14T23:21:15.029Z,35.93
2018-03-14T23:23:41.154Z,43.87
2018-03-14T23:26:08.034Z,33.10
2018-03-14T23:28:34.184Z,33.97
2018-03-14T23:31:00.614Z,31.90
2018-03-14T23:33:26.723Z,42.63
2018-03-14T23:35:52.833Z,42.63
2018-03-14T23:38:18.964Z,37.73
2018-03-14T23:40:45.067Z,43.10
2018-03-14T23:43:11.168Z,42.70
2018-03-14T23:45:37.296Z,39.20
2018-03-14T23:48:03.437Z,33.27
2018-03-14T23:50:29.593Z,47.87
2018-03-14T23:52:55.714Z,35.57
2018-03-14T23:55:21.850Z,33.70
2018-03-14T23:57:47.990Z,37.87
